createdAt,value
2023-03-31T00:00:18.043Z,29.91
2023-03-31T00:01:18.125Z,29.96
2023-03-31T00:02:18.241Z,29.91
2023-03-31T00:03:18.365Z,29.93
2023-03-31T00:04:18.385Z,29.93
2023-03-31T00:05:18.524Z,29.90
2023-03-31T00:06:19.270Z,29.90
2023-03-31T00:07:18.441Z,29.91
2023-03-31T00:08:18.516Z,29.88
2023-03-31T00:09:18.581Z,29.91
2023-03-31T00:10:18.911Z,29.96
2023-03-31T00:11:18.704Z,29.93
2023-03-31T00:12:18.709Z,29.91
2023-03-31T00:13:18.750Z,29.99
2023-03-31T00:14:18.759Z,29.94
2023-03-31T00:15:18.781Z,29.97
2023-03-31T00:16:18.880Z,30.02
2023-03-31T00:17:18.830Z,29.97
2023-03-31T00:18:18.838Z,29.94
2023-03-31T00:19:18.853Z,30.00
2023-03-31T00:20:18.890Z,29.94
2023-03-31T00:21:18.899Z,29.99
2023-03-31T00:22:18.898Z,29.99
2023-03-31T00:23:18.916Z,30.02
2023-03-31T00:24:18.919Z,30.01
2023-03-31T00:25:18.933Z,30.03
2023-03-31T00:26:18.945Z,30.01
2023-03-31T00:27:18.985Z,30.03
2023-03-31T00:28:18.961Z,30.00
2023-03-31T00:29:18.979Z,29.95
2023-03-31T00:30:18.993Z,30.01
2023-03-31T00:31:19.071Z,30.01
2023-03-31T00:32:19.003Z,29.97
2023-03-31T00:33:19.005Z,30.00
2023-03-31T00:34:19.011Z,29.98
2023-03-31T00:35:19.002Z,29.99
2023-03-31T00:36:19.021Z,30.00
2023-03-31T00:37:18.999Z,30.00
2023-03-31T00:38:19.012Z,29.98
2023-03-31T00:39:19.026Z,30.00
2023-03-31T00:40:19.024Z,29.99
2023-03-31T00:41:18.998Z,30.01
2023-03-31T00:42:18.989Z,30.03
2023-03-31T00:43:19.006Z,30.00
2023-03-31T00:44:19.191Z,30.01
2023-03-31T00:45:18.962Z,30.00
2023-03-31T00:46:18.977Z,30.01
2023-03-31T00:47:18.954Z,30.00
2023-03-31T00:48:18.947Z,30.01
2023-03-31T00:49:18.945Z,30.00
2023-03-31T00:50:18.989Z,30.03
2023-03-31T00:51:18.932Z,29.95
2023-03-31T00:52:18.923Z,30.00
2023-03-31T00:53:18.903Z,29.99
2023-03-31T00:54:18.878Z,29.95
2023-03-31T00:55:18.886Z,30.01
2023-03-31T00:56:18.881Z,29.98
2023-03-31T00:57:18.916Z,29.91
2023-03-31T00:58:18.882Z,29.95
2023-03-31T00:59:18.917Z,29.95
2023-03-31T01:00:18.978Z,29.94
2023-03-31T01:01:18.916Z,29.98
2023-03-31T01:02:18.884Z,30.00
2023-03-31T01:03:18.960Z,29.97
2023-03-31T01:04:18.889Z,29.98
2023-03-31T01:05:18.885Z,30.03
2023-03-31T01:06:18.873Z,30.00
2023-03-31T01:07:18.866Z,29.92
2023-03-31T01:08:18.868Z,30.00
2023-03-31T01:09:18.868Z,29.92
2023-03-31T01:10:18.869Z,29.92
2023-03-31T01:11:18.851Z,29.98
2023-03-31T01:12:18.835Z,29.95
2023-03-31T01:13:19.483Z,29.92
2023-03-31T01:14:18.811Z,30.01
2023-03-31T01:15:18.851Z,29.95
2023-03-31T01:16:18.801Z,29.95
2023-03-31T01:17:18.886Z,29.92
2023-03-31T01:18:18.792Z,29.97
2023-03-31T01:19:18.738Z,29.94
2023-03-31T01:20:18.742Z,29.97
2023-03-31T01:21:18.866Z,29.97
2023-03-31T01:22:18.747Z,29.95
2023-03-31T01:23:18.752Z,29.93
2023-03-31T01:24:18.764Z,29.95
2023-03-31T01:25:18.740Z,29.92
2023-03-31T01:26:18.745Z,29.92
2023-03-31T01:27:18.720Z,30.00
2023-03-31T01:28:18.725Z,29.92
2023-03-31T01:29:18.723Z,29.97
2023-03-31T01:30:18.720Z,29.92
2023-03-31T01:31:18.785Z,29.89
2023-03-31T01:32:18.704Z,29.95
2023-03-31T01:33:18.761Z,29.91
2023-03-31T01:34:18.684Z,29.91
2023-03-31T01:35:18.690Z,29.91
2023-03-31T01:36:18.686Z,29.95
2023-03-31T01:37:18.702Z,29.89
2023-03-31T01:38:18.693Z,29.91
2023-03-31T01:39:18.692Z,29.89
2023-03-31T01:40:18.700Z,29.88
2023-03-31T01:41:18.836Z,29.91
2023-03-31T01:42:18.700Z,29.89
2023-03-31T01:43:18.695Z,29.89
2023-03-31T01:44:18.676Z,29.92
2023-03-31T01:45:18.679Z,29.87
2023-03-31T01:46:18.680Z,29.88
2023-03-31T01:47:18.688Z,29.85
2023-03-31T01:48:18.674Z,29.89
2023-03-31T01:49:18.664Z,29.89
2023-03-31T01:50:18.670Z,29.88
2023-03-31T01:51:18.663Z,29.89
2023-03-31T01:52:18.697Z,29.86
2023-03-31T01:53:18.645Z,29.88
2023-03-31T01:54:18.633Z,29.89
2023-03-31T01:55:18.672Z,29.80
2023-03-31T01:56:18.658Z,29.89
2023-03-31T01:57:18.736Z,29.85
2023-03-31T01:58:18.649Z,29.85
2023-03-31T01:59:18.661Z,29.89
2023-03-31T02:00:18.643Z,29.89
2023-03-31T02:01:18.639Z,29.85
2023-03-31T02:02:18.708Z,29.88
2023-03-31T02:03:18.807Z,29.88
2023-03-31T02:04:18.601Z,29.88
2023-03-31T02:05:18.610Z,29.83
2023-03-31T02:06:18.592Z,29.88
2023-03-31T02:07:18.577Z,29.88
2023-03-31T02:08:18.563Z,29.85
2023-03-31T02:09:18.561Z,29.82
2023-03-31T02:10:18.568Z,29.85
2023-03-31T02:11:18.583Z,29.86
2023-03-31T02:12:18.557Z,29.88
2023-03-31T02:13:18.545Z,29.83
2023-03-31T02:14:18.532Z,29.88
2023-03-31T02:15:18.525Z,29.85
2023-03-31T02:16:18.552Z,29.82
2023-03-31T02:17:18.514Z,29.88
2023-03-31T02:18:18.533Z,29.77
2023-03-31T02:19:18.568Z,29.85
2023-03-31T02:20:18.506Z,29.85
2023-03-31T02:21:18.502Z,29.80
2023-03-31T02:22:18.501Z,29.88
2023-03-31T02:23:18.503Z,29.82
2023-03-31T02:24:18.496Z,29.85
2023-03-31T02:25:18.482Z,29.82
2023-03-31T02:26:18.481Z,29.88
2023-03-31T02:27:18.479Z,29.80
2023-03-31T02:28:18.469Z,29.80
2023-03-31T02:29:18.471Z,29.79
2023-03-31T02:30:18.475Z,29.83
2023-03-31T02:31:18.512Z,29.80
2023-03-31T02:32:18.464Z,29.80
2023-03-31T02:33:18.485Z,29.86
2023-03-31T02:34:18.463Z,29.80
2023-03-31T02:35:18.487Z,29.83
2023-03-31T02:36:18.508Z,29.80
2023-03-31T02:37:18.468Z,29.85
2023-03-31T02:38:18.465Z,29.82
2023-03-31T02:39:18.465Z,29.82
2023-03-31T02:40:18.473Z,29.80
2023-03-31T02:41:18.469Z,29.77
2023-03-31T02:42:18.462Z,29.80
2023-03-31T02:43:18.459Z,29.78
2023-03-31T02:44:18.480Z,29.80
2023-03-31T02:45:18.469Z,29.83
2023-03-31T02:46:18.481Z,29.74
2023-03-31T02:47:19.047Z,29.76
2023-03-31T02:48:18.462Z,29.76
2023-03-31T02:49:18.444Z,29.83
2023-03-31T02:50:18.535Z,29.79
2023-03-31T02:51:18.472Z,29.76
2023-03-31T02:52:18.452Z,29.80
2023-03-31T02:53:18.469Z,29.77
2023-03-31T02:54:18.475Z,29.77
2023-03-31T02:55:18.469Z,29.76
2023-03-31T02:56:18.468Z,29.76
2023-03-31T02:57:18.619Z,29.80
2023-03-31T02:58:18.487Z,29.76
2023-03-31T02:59:18.455Z,29.73
2023-03-31T03:00:18.476Z,29.73
2023-03-31T03:01:18.488Z,29.73
2023-03-31T03:02:18.510Z,29.73
2023-03-31T03:03:18.486Z,29.76
2023-03-31T03:04:18.471Z,29.76
2023-03-31T03:05:18.479Z,29.74
2023-03-31T03:06:18.482Z,29.71
2023-03-31T03:07:18.504Z,29.73
2023-03-31T03:08:18.481Z,29.73
2023-03-31T03:09:18.473Z,29.73
2023-03-31T03:10:18.477Z,29.71
2023-03-31T03:11:18.465Z,29.75
2023-03-31T03:12:18.462Z,29.73
2023-03-31T03:13:18.473Z,29.74
2023-03-31T03:14:18.477Z,29.70
2023-03-31T03:15:18.488Z,29.68
2023-03-31T03:16:18.499Z,29.68
2023-03-31T03:17:18.501Z,29.70
2023-03-31T03:18:18.478Z,29.68
2023-03-31T03:19:18.458Z,29.68
2023-03-31T03:20:18.461Z,29.65
2023-03-31T03:21:18.455Z,29.74
2023-03-31T03:22:18.459Z,29.64
2023-03-31T03:23:18.471Z,29.62
2023-03-31T03:24:18.472Z,29.65
2023-03-31T03:25:18.458Z,29.67
2023-03-31T03:26:18.451Z,29.64
2023-03-31T03:27:18.466Z,29.68
2023-03-31T03:28:18.472Z,29.65
2023-03-31T03:29:18.463Z,29.65
2023-03-31T03:30:18.457Z,29.66
2023-03-31T03:31:18.503Z,29.64
2023-03-31T03:32:18.461Z,29.64
2023-03-31T03:33:18.503Z,29.64
2023-03-31T03:34:18.469Z,29.67
2023-03-31T03:35:18.470Z,29.68
2023-03-31T03:36:18.489Z,29.62
2023-03-31T03:37:18.470Z,29.71
2023-03-31T03:38:18.465Z,29.66
2023-03-31T03:39:18.470Z,29.65
2023-03-31T03:40:18.435Z,29.70
2023-03-31T03:41:18.412Z,29.68
2023-03-31T03:42:18.396Z,29.64
2023-03-31T03:43:18.387Z,29.64
2023-03-31T03:44:18.376Z,29.62
2023-03-31T03:45:18.372Z,29.68
2023-03-31T03:46:18.393Z,29.62
2023-03-31T03:47:18.346Z,29.65
2023-03-31T03:48:18.314Z,29.67
2023-03-31T03:49:18.299Z,29.62
2023-03-31T03:50:18.292Z,29.59
2023-03-31T03:51:18.308Z,29.62
2023-03-31T03:52:18.288Z,29.59
2023-03-31T03:53:18.309Z,29.61
2023-03-31T03:54:18.278Z,29.62
2023-03-31T03:55:18.278Z,29.62
2023-03-31T03:56:18.235Z,29.65
2023-03-31T03:57:18.242Z,29.62
2023-03-31T03:58:18.197Z,29.65
2023-03-31T03:59:18.182Z,29.65
2023-03-31T04:00:18.160Z,29.58
2023-03-31T04:01:18.143Z,29.62
2023-03-31T04:02:18.172Z,29.64
2023-03-31T04:03:18.237Z,29.59
2023-03-31T04:04:18.100Z,29.58
2023-03-31T04:05:18.148Z,29.58
2023-03-31T04:06:18.066Z,29.61
2023-03-31T04:07:18.059Z,29.64
2023-03-31T04:08:18.043Z,29.61
2023-03-31T04:09:18.031Z,29.62
2023-03-31T04:10:18.021Z,29.59
2023-03-31T04:11:19.144Z,29.55
2023-03-31T04:12:18.548Z,29.57
2023-03-31T04:13:18.008Z,29.55
2023-03-31T04:14:17.988Z,29.59
2023-03-31T04:15:17.987Z,29.59
2023-03-31T04:16:18.004Z,29.53
2023-03-31T04:17:17.981Z,29.58
2023-03-31T04:18:17.968Z,29.59
2023-03-31T04:19:17.962Z,29.59
2023-03-31T04:20:17.971Z,29.56
2023-03-31T04:21:17.955Z,29.55
2023-03-31T04:22:17.945Z,29.59
2023-03-31T04:23:17.930Z,29.53
2023-03-31T04:24:18.831Z,29.57
2023-03-31T04:25:17.951Z,29.56
2023-03-31T04:26:17.946Z,29.52
2023-03-31T04:27:17.969Z,29.48
2023-03-31T04:28:17.984Z,29.53
2023-03-31T04:29:17.900Z,29.50
2023-03-31T04:30:17.889Z,29.51
2023-03-31T04:31:17.923Z,29.55
2023-03-31T04:32:17.885Z,29.53
2023-03-31T04:33:17.874Z,29.53
2023-03-31T04:34:17.869Z,29.48
2023-03-31T04:35:17.863Z,29.51
2023-03-31T04:36:17.984Z,29.47
2023-03-31T04:37:17.816Z,29.53
2023-03-31T04:38:17.814Z,29.46
2023-03-31T04:39:17.845Z,29.48
2023-03-31T04:40:17.811Z,29.49
2023-03-31T04:41:17.816Z,29.49
2023-03-31T04:42:17.802Z,29.48
2023-03-31T04:43:17.822Z,29.47
2023-03-31T04:44:17.789Z,29.48
2023-03-31T04:45:17.785Z,29.47
2023-03-31T04:46:17.903Z,29.46
2023-03-31T04:47:17.785Z,29.44
2023-03-31T04:48:17.777Z,29.50
2023-03-31T04:49:17.784Z,29.46
2023-03-31T04:50:17.767Z,29.47
2023-03-31T04:51:17.765Z,29.47
2023-03-31T04:52:17.781Z,29.47
2023-03-31T04:53:17.783Z,29.47
2023-03-31T04:54:17.781Z,29.44
2023-03-31T04:55:17.781Z,29.44
2023-03-31T04:56:17.772Z,29.44
2023-03-31T04:57:17.798Z,29.47
2023-03-31T04:58:17.781Z,29.41
2023-03-31T04:59:18.201Z,29.48
2023-03-31T05:00:17.794Z,29.46
2023-03-31T05:01:17.829Z,29.47
2023-03-31T05:02:17.826Z,29.39
2023-03-31T05:03:17.932Z,29.43
2023-03-31T05:04:17.817Z,29.41
2023-03-31T05:05:17.855Z,29.44
2023-03-31T05:06:17.824Z,29.44
2023-03-31T05:07:17.835Z,29.44
2023-03-31T05:08:17.828Z,29.43
2023-03-31T05:09:17.823Z,29.41
2023-03-31T05:10:17.828Z,29.39
2023-03-31T05:11:17.819Z,29.39
2023-03-31T05:12:17.844Z,29.43
2023-03-31T05:13:17.826Z,29.43
2023-03-31T05:14:17.833Z,29.41
2023-03-31T05:15:17.860Z,29.44
2023-03-31T05:16:17.880Z,29.39
2023-03-31T05:17:18.165Z,29.43
2023-03-31T05:18:17.838Z,29.47
2023-03-31T05:19:17.834Z,29.48
2023-03-31T05:20:17.859Z,29.50
2023-03-31T05:21:17.835Z,29.49
2023-03-31T05:22:17.829Z,29.46
2023-03-31T05:23:18.084Z,29.46
2023-03-31T05:24:17.837Z,29.41
2023-03-31T05:25:17.828Z,29.49
2023-03-31T05:26:17.837Z,29.41
2023-03-31T05:27:17.823Z,29.38
2023-03-31T05:28:17.842Z,29.34
2023-03-31T05:29:17.814Z,29.46
2023-03-31T05:30:17.812Z,29.41
2023-03-31T05:31:17.866Z,29.41
2023-03-31T05:32:17.814Z,29.39
2023-03-31T05:33:18.086Z,29.40
2023-03-31T05:34:17.851Z,29.42
2023-03-31T05:35:17.800Z,29.49
2023-03-31T05:36:18.148Z,29.50
2023-03-31T05:37:17.803Z,29.49
2023-03-31T05:38:17.801Z,29.46
2023-03-31T05:39:17.786Z,29.46
2023-03-31T05:40:17.796Z,29.46
2023-03-31T05:41:18.095Z,29.49
2023-03-31T05:42:17.768Z,29.43
2023-03-31T05:43:18.097Z,29.44
2023-03-31T05:44:18.092Z,29.42
2023-03-31T05:45:17.740Z,29.40
2023-03-31T05:46:17.852Z,29.45
2023-03-31T05:47:17.767Z,29.47
2023-03-31T05:48:17.732Z,29.42
2023-03-31T05:49:18.138Z,29.47
2023-03-31T05:50:17.709Z,29.61
2023-03-31T05:51:17.711Z,29.64
2023-03-31T05:52:18.194Z,29.77
2023-03-31T05:53:18.100Z,30.10
2023-03-31T05:54:18.146Z,30.68
2023-03-31T05:55:17.749Z,30.56
2023-03-31T05:56:17.764Z,30.61
2023-03-31T05:57:17.796Z,30.83
2023-03-31T05:58:18.093Z,30.90
2023-03-31T05:59:17.810Z,31.11
2023-03-31T06:00:17.848Z,31.16
2023-03-31T06:01:18.388Z,31.39
2023-03-31T06:02:17.971Z,31.35
2023-03-31T06:03:18.137Z,31.32
2023-03-31T06:04:18.010Z,31.05
2023-03-31T06:05:18.069Z,30.86
2023-03-31T06:06:18.089Z,31.00
2023-03-31T06:07:18.116Z,30.96
2023-03-31T06:08:18.603Z,30.90
2023-03-31T06:09:18.089Z,30.83
2023-03-31T06:10:18.080Z,31.61
2023-03-31T06:11:18.070Z,31.86
2023-03-31T06:12:18.066Z,32.03
2023-03-31T06:13:18.112Z,32.11
2023-03-31T06:14:18.106Z,32.21
2023-03-31T06:15:18.138Z,32.25
2023-03-31T06:16:18.152Z,32.35
2023-03-31T06:17:18.202Z,32.36
2023-03-31T06:18:18.608Z,32.48
2023-03-31T06:19:18.331Z,32.51
2023-03-31T06:20:27.206Z,32.59
2023-03-31T06:21:18.327Z,32.65
2023-03-31T06:22:18.309Z,31.60
2023-03-31T06:23:18.309Z,31.70
2023-03-31T06:24:18.269Z,31.00
2023-03-31T06:25:18.243Z,31.00
2023-03-31T06:26:18.238Z,30.69
2023-03-31T06:27:18.225Z,30.69
2023-03-31T06:28:18.601Z,30.58
2023-03-31T06:29:18.203Z,30.80
2023-03-31T06:30:18.197Z,30.52
2023-03-31T06:31:18.213Z,30.28
2023-03-31T06:32:18.171Z,30.41
2023-03-31T06:33:18.619Z,30.85
2023-03-31T06:34:20.025Z,31.08
2023-03-31T06:35:18.173Z,31.20
2023-03-31T06:36:19.491Z,31.53
2023-03-31T06:37:18.149Z,31.86
2023-03-31T06:38:18.155Z,32.16
2023-03-31T06:39:18.164Z,32.44
2023-03-31T06:40:18.607Z,32.53
2023-03-31T06:41:18.627Z,32.64
2023-03-31T06:42:18.172Z,32.64
2023-03-31T06:43:18.608Z,32.64
2023-03-31T06:44:18.647Z,32.69
2023-03-31T06:45:18.179Z,32.77
2023-03-31T06:46:18.384Z,32.79
2023-03-31T06:47:18.225Z,32.79
2023-03-31T06:48:18.810Z,32.93
2023-03-31T06:49:18.326Z,32.92
2023-03-31T06:50:18.374Z,33.52
2023-03-31T06:52:18.498Z,32.89
2023-03-31T06:53:19.694Z,32.37
2023-03-31T06:54:18.387Z,31.89
2023-03-31T06:55:18.380Z,31.76
2023-03-31T06:56:18.382Z,31.64
2023-03-31T06:57:18.445Z,31.67
2023-03-31T06:58:18.611Z,31.77
2023-03-31T06:59:18.611Z,31.74
2023-03-31T07:00:21.530Z,32.23
2023-03-31T07:01:18.494Z,32.03
2023-03-31T07:02:18.567Z,32.16
2023-03-31T07:03:18.838Z,32.32
2023-03-31T07:04:19.118Z,32.04
2023-03-31T07:05:18.727Z,32.19
2023-03-31T07:06:18.749Z,32.06
2023-03-31T07:07:18.754Z,32.02
2023-03-31T07:08:19.154Z,32.13
2023-03-31T07:09:18.807Z,32.46
2023-03-31T07:10:18.769Z,32.26
2023-03-31T07:11:21.091Z,32.11
2023-03-31T07:12:18.742Z,32.39
2023-03-31T07:13:18.726Z,32.39
2023-03-31T07:14:18.716Z,32.32
2023-03-31T07:15:19.616Z,31.88
2023-03-31T07:16:18.711Z,31.98
2023-03-31T07:17:18.674Z,32.22
2023-03-31T07:18:19.160Z,31.91
2023-03-31T07:19:18.626Z,31.67
2023-03-31T07:20:18.615Z,31.65
2023-03-31T07:21:18.609Z,31.58
2023-03-31T07:22:18.587Z,31.73
2023-03-31T07:23:18.624Z,31.89
2023-03-31T07:24:18.612Z,32.03
2023-03-31T07:25:18.561Z,32.30
2023-03-31T07:26:18.545Z,32.33
2023-03-31T07:27:18.537Z,32.35
2023-03-31T07:28:18.624Z,31.86
2023-03-31T07:29:18.510Z,32.03
2023-03-31T07:30:18.517Z,31.93
2023-03-31T07:31:18.480Z,32.09
2023-03-31T07:32:18.500Z,31.97
2023-03-31T07:33:18.640Z,31.44
2023-03-31T07:34:18.431Z,31.48
2023-03-31T07:35:18.451Z,31.63
2023-03-31T07:36:18.669Z,31.92
2023-03-31T07:37:18.488Z,32.05
2023-03-31T07:38:18.630Z,32.08
2023-03-31T07:39:18.629Z,32.30
2023-03-31T07:40:18.653Z,32.22
2023-03-31T07:41:18.600Z,32.31
2023-03-31T07:42:18.619Z,32.34
2023-03-31T07:43:18.622Z,32.53
2023-03-31T07:44:18.655Z,32.54
2023-03-31T07:45:17.625Z,32.56
2023-03-31T07:46:18.599Z,32.80
2023-03-31T07:47:18.593Z,32.60
2023-03-31T07:48:18.706Z,32.76
2023-03-31T07:49:18.632Z,32.70
2023-03-31T07:50:18.605Z,32.95
2023-03-31T07:51:18.623Z,32.84
2023-03-31T07:52:18.644Z,32.87
2023-03-31T07:53:21.909Z,32.86
2023-03-31T07:54:19.139Z,32.94
2023-03-31T07:55:19.131Z,32.93
2023-03-31T07:56:18.671Z,33.08
2023-03-31T07:57:19.722Z,33.22
2023-03-31T07:58:18.641Z,33.19
2023-03-31T07:59:18.614Z,33.43
2023-03-31T08:00:18.624Z,33.38
2023-03-31T08:01:18.584Z,33.35
2023-03-31T08:02:18.639Z,33.34
2023-03-31T08:03:18.708Z,33.38
2023-03-31T08:04:18.759Z,33.38
2023-03-31T08:05:18.566Z,33.49
2023-03-31T08:06:18.577Z,33.49
2023-03-31T08:07:18.600Z,33.54
2023-03-31T08:08:18.638Z,33.56
2023-03-31T08:09:18.639Z,33.61
2023-03-31T08:10:18.677Z,33.62
2023-03-31T08:11:19.148Z,33.66
2023-03-31T08:12:19.196Z,33.72
2023-03-31T08:13:18.703Z,33.80
2023-03-31T08:14:30.324Z,33.85
2023-03-31T08:15:18.712Z,33.96
2023-03-31T08:16:18.680Z,33.94
2023-03-31T08:17:18.659Z,33.99
2023-03-31T08:18:18.644Z,34.01
2023-03-31T08:19:18.626Z,34.06
2023-03-31T08:20:18.600Z,34.16
2023-03-31T08:21:18.640Z,34.19
2023-03-31T08:22:18.584Z,34.26
2023-03-31T08:23:18.533Z,34.31
2023-03-31T08:24:18.538Z,34.38
2023-03-31T08:25:18.492Z,34.34
2023-03-31T08:26:18.649Z,34.35
2023-03-31T08:27:18.456Z,34.41
2023-03-31T08:28:18.476Z,34.53
2023-03-31T08:29:18.423Z,34.63
2023-03-31T08:30:18.784Z,34.63
2023-03-31T08:31:18.869Z,34.66
2023-03-31T08:32:18.364Z,34.70
2023-03-31T08:33:18.342Z,34.69
2023-03-31T08:34:18.330Z,34.79
2023-03-31T08:35:18.648Z,34.79
2023-03-31T08:36:18.315Z,34.89
2023-03-31T08:37:18.645Z,34.96
2023-03-31T08:38:18.222Z,34.95
2023-03-31T08:39:18.201Z,35.02
2023-03-31T08:40:18.179Z,35.03
2023-03-31T08:41:18.164Z,35.09
2023-03-31T08:42:18.142Z,35.17
2023-03-31T08:43:18.117Z,35.62
2023-03-31T08:44:18.121Z,35.48
2023-03-31T08:45:18.149Z,35.37
2023-03-31T08:46:18.089Z,35.23
2023-03-31T08:47:18.149Z,35.17
2023-03-31T08:48:18.222Z,35.28
2023-03-31T08:49:17.974Z,35.26
2023-03-31T08:50:17.941Z,35.32
2023-03-31T08:51:17.908Z,35.29
2023-03-31T08:52:18.152Z,35.42
2023-03-31T08:53:17.913Z,35.46
2023-03-31T08:54:17.860Z,35.42
2023-03-31T08:55:17.807Z,35.45
2023-03-31T08:56:17.800Z,35.48
2023-03-31T08:57:17.793Z,35.49
2023-03-31T08:58:17.734Z,35.37
2023-03-31T08:59:17.730Z,35.37
2023-03-31T09:00:17.725Z,35.13
2023-03-31T09:01:17.752Z,34.83
2023-03-31T09:02:18.362Z,34.80
2023-03-31T09:03:17.682Z,34.02
2023-03-31T09:04:17.781Z,34.09
2023-03-31T09:05:18.082Z,34.58
2023-03-31T09:06:17.823Z,34.48
2023-03-31T09:07:17.579Z,33.96
2023-03-31T09:08:17.533Z,33.20
2023-03-31T09:09:17.512Z,33.77
2023-03-31T09:10:17.663Z,34.24
2023-03-31T09:11:17.481Z,34.31
2023-03-31T09:12:17.484Z,33.60
2023-03-31T09:13:17.660Z,33.89
2023-03-31T09:14:17.608Z,34.72
2023-03-31T09:15:17.391Z,34.21
2023-03-31T09:16:17.451Z,34.40
2023-03-31T09:17:17.366Z,34.44
2023-03-31T09:18:17.660Z,34.51
2023-03-31T09:19:17.324Z,34.54
2023-03-31T09:20:17.353Z,34.60
2023-03-31T09:21:17.314Z,34.50
2023-03-31T09:22:17.304Z,34.55
2023-03-31T09:23:18.174Z,34.51
2023-03-31T09:24:17.237Z,34.52
2023-03-31T09:25:17.217Z,34.50
2023-03-31T09:26:17.695Z,34.50
2023-03-31T09:27:17.225Z,34.46
2023-03-31T09:28:17.222Z,34.46
2023-03-31T09:29:17.668Z,34.37
2023-03-31T09:30:17.218Z,34.32
2023-03-31T09:31:17.230Z,34.23
2023-03-31T09:32:17.289Z,32.14
2023-03-31T09:33:17.261Z,32.97
2023-03-31T09:34:17.677Z,33.45
2023-03-31T09:35:17.330Z,33.44
2023-03-31T09:36:17.462Z,33.64
2023-03-31T09:37:17.396Z,33.98
2023-03-31T09:38:17.694Z,34.42
2023-03-31T09:39:17.448Z,34.19
2023-03-31T09:40:17.492Z,34.18
2023-03-31T09:41:17.532Z,34.19
2023-03-31T09:42:17.517Z,34.22
2023-03-31T09:43:17.707Z,34.20
2023-03-31T09:44:17.565Z,34.21
2023-03-31T09:45:17.543Z,34.27
2023-03-31T09:46:17.701Z,34.43
2023-03-31T09:47:17.817Z,34.49
2023-03-31T09:48:17.572Z,34.19
2023-03-31T09:49:17.705Z,33.38
2023-03-31T09:50:17.678Z,32.35
2023-03-31T09:51:17.539Z,31.98
2023-03-31T09:52:17.607Z,32.51
2023-03-31T09:53:17.608Z,32.74
2023-03-31T09:54:17.680Z,32.44
2023-03-31T09:55:28.418Z,32.83
2023-03-31T09:56:17.664Z,33.30
2023-03-31T09:57:17.705Z,33.37
2023-03-31T09:58:17.674Z,33.11
2023-03-31T09:59:17.628Z,33.41
2023-03-31T10:00:17.599Z,33.56
2023-03-31T10:01:17.619Z,33.65
2023-03-31T10:02:17.572Z,33.80
2023-03-31T10:03:17.536Z,33.55
2023-03-31T10:04:17.609Z,33.61
2023-03-31T10:05:17.681Z,33.52
2023-03-31T10:06:17.478Z,34.00
2023-03-31T10:07:17.450Z,33.56
2023-03-31T10:08:17.441Z,33.67
2023-03-31T10:09:17.411Z,33.92
2023-03-31T10:10:17.755Z,33.83
2023-03-31T10:11:17.369Z,33.98
2023-03-31T10:12:17.376Z,33.95
2023-03-31T10:13:17.327Z,34.04
2023-03-31T10:14:17.306Z,34.16
2023-03-31T10:15:17.703Z,34.16
2023-03-31T10:16:17.308Z,34.21
2023-03-31T10:17:17.691Z,34.24
2023-03-31T10:18:17.293Z,34.34
2023-03-31T10:19:17.216Z,34.37
2023-03-31T10:20:17.222Z,34.44
2023-03-31T10:21:17.170Z,34.50
2023-03-31T10:22:17.135Z,34.56
2023-03-31T10:23:17.115Z,34.81
2023-03-31T10:24:17.091Z,35.02
2023-03-31T10:25:17.209Z,35.01
2023-03-31T10:26:17.050Z,34.79
2023-03-31T10:27:19.541Z,34.78
2023-03-31T10:28:17.000Z,34.73
2023-03-31T10:29:16.990Z,34.67
2023-03-31T10:30:16.944Z,34.77
2023-03-31T10:31:17.225Z,34.74
2023-03-31T10:32:16.889Z,34.65
2023-03-31T10:33:22.678Z,34.68
2023-03-31T10:34:16.877Z,34.64
2023-03-31T10:35:17.187Z,34.62
2023-03-31T10:36:16.901Z,34.59
2023-03-31T10:37:16.775Z,34.48
2023-03-31T10:38:16.751Z,34.57
2023-03-31T10:39:17.218Z,34.59
2023-03-31T10:40:16.717Z,34.63
2023-03-31T10:41:17.261Z,34.54
2023-03-31T10:42:16.680Z,34.63
2023-03-31T10:43:16.679Z,34.39
2023-03-31T10:44:16.656Z,34.30
2023-03-31T10:45:26.113Z,34.45
2023-03-31T10:46:16.656Z,34.49
2023-03-31T10:47:16.582Z,34.53
2023-03-31T10:48:16.594Z,34.55
2023-03-31T10:49:16.545Z,34.54
2023-03-31T10:50:16.763Z,34.52
2023-03-31T10:51:16.757Z,34.56
2023-03-31T10:52:16.717Z,34.60
2023-03-31T10:53:16.477Z,34.98
2023-03-31T10:54:16.455Z,33.98
2023-03-31T10:55:16.471Z,34.00
2023-03-31T10:56:16.426Z,33.80
2023-03-31T10:57:16.428Z,33.62
2023-03-31T10:58:16.452Z,33.64
2023-03-31T10:59:16.430Z,34.05
2023-03-31T11:00:16.406Z,34.92
2023-03-31T11:01:16.416Z,34.54
2023-03-31T11:02:16.382Z,34.55
2023-03-31T11:03:16.430Z,34.61
2023-03-31T11:04:16.346Z,34.71
2023-03-31T11:05:16.342Z,34.82
2023-03-31T11:06:16.704Z,35.27
2023-03-31T11:07:16.314Z,35.52
2023-03-31T11:08:18.023Z,36.45
2023-03-31T11:09:16.353Z,35.95
2023-03-31T11:10:16.276Z,35.97
2023-03-31T11:11:16.699Z,36.16
2023-03-31T11:12:16.280Z,36.29
2023-03-31T11:13:16.246Z,36.29
2023-03-31T11:14:16.235Z,36.27
2023-03-31T11:15:16.207Z,36.44
2023-03-31T11:16:16.332Z,36.35
2023-03-31T11:17:16.202Z,36.36
2023-03-31T11:18:16.147Z,36.42
2023-03-31T11:19:16.135Z,36.49
2023-03-31T11:20:16.117Z,36.58
2023-03-31T11:21:16.211Z,36.61
2023-03-31T11:22:16.076Z,36.70
2023-03-31T11:23:16.042Z,36.72
2023-03-31T11:24:16.051Z,36.63
2023-03-31T11:25:16.225Z,36.66
2023-03-31T11:26:16.206Z,36.62
2023-03-31T11:27:15.965Z,36.62
2023-03-31T11:28:15.968Z,36.65
2023-03-31T11:29:15.927Z,36.70
2023-03-31T11:30:16.264Z,36.64
2023-03-31T11:31:15.948Z,36.66
2023-03-31T11:32:15.914Z,36.61
2023-03-31T11:33:15.872Z,36.66
2023-03-31T11:34:15.818Z,36.64
2023-03-31T11:35:15.806Z,36.78
2023-03-31T11:36:15.810Z,36.83
2023-03-31T11:37:15.774Z,36.88
2023-03-31T11:38:16.283Z,36.91
2023-03-31T11:39:15.717Z,36.92
2023-03-31T11:40:15.723Z,37.15
2023-03-31T11:41:15.752Z,36.87
2023-03-31T11:42:16.284Z,36.95
2023-03-31T11:43:15.614Z,36.95
2023-03-31T11:44:15.610Z,36.90
2023-03-31T11:45:15.582Z,36.93
2023-03-31T11:46:15.618Z,37.01
2023-03-31T11:47:15.548Z,37.05
2023-03-31T11:48:15.562Z,37.03
2023-03-31T11:49:15.534Z,37.06
2023-03-31T11:50:15.486Z,37.23
2023-03-31T11:51:15.728Z,37.27
2023-03-31T11:52:15.526Z,37.33
2023-03-31T11:53:15.545Z,37.31
2023-03-31T11:54:15.573Z,37.42
2023-03-31T11:55:15.715Z,37.51
2023-03-31T11:56:15.677Z,37.51
2023-03-31T11:57:15.793Z,37.58
2023-03-31T11:58:15.712Z,37.68
2023-03-31T11:59:15.737Z,37.68
2023-03-31T12:00:15.761Z,37.69
2023-03-31T12:01:15.874Z,37.71
2023-03-31T12:02:15.847Z,37.74
2023-03-31T12:03:16.326Z,37.73
2023-03-31T12:04:15.921Z,37.81
2023-03-31T12:05:15.948Z,37.86
2023-03-31T12:06:15.976Z,37.77
2023-03-31T12:07:16.017Z,37.84
2023-03-31T12:08:16.056Z,37.80
2023-03-31T12:09:16.105Z,37.79
2023-03-31T12:10:16.167Z,37.92
2023-03-31T12:11:16.166Z,37.91
2023-03-31T12:12:17.250Z,37.98
2023-03-31T12:13:16.241Z,38.00
2023-03-31T12:14:16.288Z,38.11
2023-03-31T12:15:16.340Z,38.08
2023-03-31T12:16:16.431Z,38.06
2023-03-31T12:17:16.428Z,38.01
2023-03-31T12:18:16.457Z,38.01
2023-03-31T12:19:16.500Z,37.99
2023-03-31T12:20:16.538Z,38.04
2023-03-31T12:21:16.567Z,38.06
2023-03-31T12:22:16.648Z,38.11
2023-03-31T12:23:16.659Z,38.14
2023-03-31T12:24:16.696Z,38.03
2023-03-31T12:25:16.733Z,36.67
2023-03-31T12:26:16.770Z,37.14
2023-03-31T12:27:17.246Z,36.25
2023-03-31T12:28:16.876Z,36.52
2023-03-31T12:29:16.882Z,36.66
2023-03-31T12:30:16.907Z,36.36
2023-03-31T12:31:16.926Z,35.00
2023-03-31T12:32:16.906Z,35.09
2023-03-31T12:33:16.892Z,35.14
2023-03-31T12:34:16.899Z,35.34
2023-03-31T12:35:16.909Z,35.14
2023-03-31T12:36:16.949Z,34.93
2023-03-31T12:37:18.228Z,34.95
2023-03-31T12:38:16.913Z,34.21
2023-03-31T12:39:16.910Z,34.29
2023-03-31T12:40:16.914Z,34.11
2023-03-31T12:41:16.940Z,34.38
2023-03-31T12:42:17.237Z,34.32
2023-03-31T12:43:16.978Z,34.39
2023-03-31T12:44:17.023Z,34.56
2023-03-31T12:45:17.029Z,34.70
2023-03-31T12:46:17.093Z,34.83
2023-03-31T12:47:17.239Z,35.05
2023-03-31T12:48:17.049Z,35.16
2023-03-31T12:49:17.062Z,35.27
2023-03-31T12:50:17.085Z,35.24
2023-03-31T12:51:17.077Z,35.30
2023-03-31T12:52:17.243Z,35.40
2023-03-31T12:53:17.091Z,35.45